Terminal Aerodrome Forecast
Issued by NWS Shreveport, LA

Home | Current Version | Previous Version | Text Only | Print | Product List | Glossary On
Versions: 1 2 3 4 5 6 7 8 9 10 11 12 13 14 15 16 17 18
000
FTUS44 KSHV 170718 AAA
TAFELD
TAF AMD
KELD 170718Z 1707/1806 17005KT P6SM OVC010
     FM171400 23008KT P6SM VCTS BKN035CB
     FM171500 21010KT 5SM -TSRA BR BKN020CB
     FM171800 22010KT P6SM BKN060
     FM180200 VRB02KT P6SM SCT250=

USA.gov is the U.S. government's official web portal to all federal, state and local government web resources and services.